Aviation Digital Data Service (ADDS)

Output produced by METARs form (0344 UTC 23 November 2017)
found at http://www.aviationweather.gov/adds/metars/
 
TAF MWCB 221700Z 2218/2318 12006KT 8000 TSRA SCT016CB SCT030 
     BECMG 2222/2300 8000 TSRA SCT014CB SCT030
       
TAF MWCR 222300Z 2300/2324 04006KT 9999 VCSH SCT016 
     PROB30 
     TEMPO 2306/2312 9000 SHRA SCT014